메인 페이지
METAR-TAF:

METAR-TAF

공항 :

벨파스트, 북아일랜드

위도: 54-36N, 경도: 005-53W, 고도: 5m

현재 날씨관측

예보는 15분 전, 13:20시(UTC)에 발표되었습니다.
남서12kt
온도 17°C
습도 77%
기압 1005 hPa
시정 10km 이상
고도 3100ft 상공 구름 조금
고도 4500ft 상공 구름 많음

METAR: EGAC 251320Z AUTO 22012KT 9999 FEW031 BKN045 17/13 Q1005

시각: 14:35 (13:35 UTC)

예보

예보는 2 시간 40분 전, 10:55시(UTC)에 발표되었습니다.
예보 대상 시간: 25일 12시부터 25일 21시까지 (UTC)
서남서9kt
시정 10km 이상
고도 2500ft 상공 구름 보통
일시적
25일 12시부터 25일 21시까지 (UTC)
시정: 6000m
소나기
확률 30% :
일시적
25일 15시부터 25일 20시까지 (UTC)
시정: 3000m
강한소나기,

TAF: EGAC 251055Z 2512/2521 24009KT 9999 SCT025 TEMPO 2512/2521 6000 SHRA PROB30 TEMPO 2515/2520 3000 +SHRA

4,000개 이상의 공항 관측 자료 및 예보 (METAR 및 TAF 보고).

지도상에서 검색 가능한 기상관측소가 노란 점과 빨간 점으로 표시되어 있습니다.

기상관측소 명을 보려면 표시 위로 마우스를 이동하세요.

날씨 관측과 예보를 보려면 클릭하세요.

지도 변경 : 확대하려면 엑스 표시가 있는 녹색 버튼, 축소하려면 빼기 표시가 있는 녹색 버튼, 다음 페이지의 지도를 보려면 녹색 화살표를 클릭하세요.


METAR-TAF: